Home, KS (66438)

11:00 PM CDT on September 19, 2014 (GMT -0500)
N0NB | Change Station
CLOSE
Current Station
Personal Weather Station
Location: Bremen, KS
Elevation: 1312 ft
Nearby Weather Stations

Elev 1312 ft 39.91 °N, 96.77 °W | Updated 36 seconds ago

Clear
Clear
72.4 °F
Feels Like 70 °F
N
13.0
Wind Variable Wind from SW
Gusts 16.0 mph

Today
High -- | Low -- °F
--% Chance of Precip.
Yesterday
High -- | Low -- °F
Precip. -- in
7:10 AM 7:28 PM
Waning Crescent, 15% visible
Pressure 29.88 in
Visibility 10.0 miles
Clouds Clear
Heat Index 70 °F
Dew Point 69 °F
Humidity 89%
Rainfall 0.00 in
Snow Depth Not available.
UV 0 out of 12
Pollen 6.80 out of 12
Air Quality Not available.
Flu Activity Not available.
METAR KBIE 200355Z AUTO 18011G15KT 10SM CLR 23/20 A2988 RMK AO2 T02280201

More Conditions Fewer Conditions

Pressure 29.88 in
Visibility 10.0 miles
Clouds Clear
Heat Index 70 °F
Dew Point 69 °F
Humidity 89%
Rainfall 0.00 in
Snow Depth Not available.
UV 0 out of 12
Pollen 6.80 out of 12
Air Quality Not available.
Flu Activity Not available.
METAR KBIE 200355Z AUTO 18011G15KT 10SM CLR 23/20 A2988 RMK AO2 T02280201

More Conditions Fewer Conditions

10-Day Weather Forecast

Almanac

Astronomy

Sep. 19, 2014 Rise Set
Actual Time 7:10 AM CDT 7:28 PM CDT
Civil Twilight 6:43 AM CDT 7:55 PM CDT
Nautical Twilight 6:12 AM CDT 8:26 PM CDT
Astronomical Twilight 5:39 AM CDT 8:58 PM CDT
Moon 2:57 AM CDT (9/19) 4:57 PM CDT (9/19)
Length of Visible Light 13h 11m
Length of Day
12h 17m
Tomorrow will be 2m 35s shorter.
Waning Crescent, 15% of the Moon is Illuminated
Sep 20
Waning Crescent
Sep 24
New
Oct 1
First Quarter
Oct 8
Full
Oct 15
Last Quarter

Today's Extremes

State Highs State Lows

Community

WunderPhotos

Upload Photos

1,754,777 photos uploaded!

WunderBlogs® & News

Nearby

Snow Depth

Station Depth Elevation
No new snow has been reported.

Earthquake Activity

City Distance Mag. Time & Date
No recent earthquake activity has been reported nearby.
Minimum magnitude displayed is 2.5.

Coastal Water Temperatures

Place Temperature
No Stations Reporting

Nearby Weather Stations